• Join FlightAware (Why Join?)
  • Login
  • US Flag 
11:43AM EST


 

Airport Tracker/Info


-or-


 

Live Flight TrackerFlight Track Log ✈ SWA3028 ✈ 30-Apr-2013 ✈ KMDW - KPHL

Flight Track Log - Related Links

Times and Time Zones

All times are in EDT time to prevent confusion due to time zone crossing. See the SWA3028 flight status page for this flight to view local times or setup timezone preferences in your user account.

Time Position Orientation Groundspeed Altitude Reporting Facility
EDT Latitude Longitude Course Direction KTS MPH feet Rate Location/Type
08:37AM 41.8333 -87.7833 360° North 269 310 3,100  Level Chicago TRACON
08:38AM 41.8333 -87.7000 90° East 303 349 4,400 960 Climbing Chicago TRACON
08:39AM 41.8167 -87.5833 101° East 302 348 5,000 420 Climbing Chicago TRACON
08:39AM 41.8119 -87.5628 107° East 297 342 5,000 180 Level Chicago Center
08:40AM 41.8017 -87.4544 97° East 297 342 5,300 1,740 Climbing Chicago Center
08:41AM 41.7911 -87.3422 97° East 301 346 8,700 3,960 Climbing Chicago Center
08:42AM 41.7767 -87.2047 98° East 309 356 13,500 4,140 Climbing Chicago Center
08:43AM 41.7650 -87.0794 97° East 329 379 17,200 3,480 Climbing Chicago Center
08:44AM 41.7631 -86.9453 91° East 356 410 20,700 3,240 Climbing Chicago Center
08:45AM 41.7647 -86.8053 89° East 376 433 24,000 3,360 Climbing Chicago Center
08:46AM 41.7603 -86.6669 92° East 368 423 27,700 2,280 Climbing Chicago Center
08:47AM 41.7583 -86.5244 91° East 381 438 28,800 1,260 Climbing Chicago Center
08:48AM 41.7539 -86.3647 92° East 425 489 30,400 1,800 Climbing Chicago Center
08:49AM 41.7500 -86.1656 91° East 445 512 32,500 2,040 Climbing Chicago Center
08:50AM 41.7450 -85.9972 92° East 452 520 34,700 1,860 Climbing Chicago Center
08:51AM 41.7406 -85.8294 92° East 450 518 36,400 1,500 Climbing Chicago Center
08:52AM 41.7364 -85.6594 92° East 455 524 37,900 1,560 Climbing Chicago Center
08:53AM 41.7317 -85.4989 92° East 455 524 39,700 1,320 Climbing Chicago Center
08:54AM 41.7228 -85.3108 94° East 437 503 40,700 600 Climbing Chicago Center
08:55AM 41.7203 -85.1483 91° East 455 524 41,000 120 Climbing Chicago Center
08:56AM 41.7181 -85.0125 91° East 438 504 41,000  Level Cleveland Center
08:57AM 41.7119 -84.8422 93° East 444 511 41,000  Level Cleveland Center
08:58AM 41.7056 -84.6750 93° East 444 511 41,000  Level Cleveland Center
08:59AM 41.6967 -84.5075 94° East 449 517 41,000  Level Cleveland Center
09:00AM 41.6922 -84.3347 92° East 449 517 41,000  Level Cleveland Center
09:01AM 41.6792 -84.1558 96° East 444 511 41,000  Level Cleveland Center
09:02AM 41.6739 -83.9889 92° East 444 511 41,000  Level Cleveland Center
09:03AM 41.6664 -83.8133 93° East 449 517 41,000  Level Cleveland Center
09:04AM 41.6586 -83.6433 93° East 449 517 41,000  Level Cleveland Center
09:05AM 41.6503 -83.4761 94° East 454 522 41,000  Level Cleveland Center
09:06AM 41.6358 -83.3058 96° East 454 522 41,000  Level Cleveland Center
09:07AM 41.6014 -83.1656 108° East 454 522 41,000  Level Cleveland Center
09:08AM 41.5633 -83.0031 107° East 447 514 41,000  Level Cleveland Center
09:09AM 41.5228 -82.8464 109° East 447 514 41,000  Level Cleveland Center
09:10AM 41.4803 -82.6731 108° East 455 524 41,000  Level Cleveland Center
09:11AM 41.4372 -82.5081 109° East 455 524 41,000  Level Cleveland Center
09:12AM 41.3961 -82.3492 109° East 455 524 41,000  Level Cleveland Center
09:13AM 41.3547 -82.1875 109° East 455 524 41,000  Level Cleveland Center
09:14AM 41.3211 -82.0375 107° East 455 524 41,000  Level Cleveland Center
09:15AM 41.2792 -81.8789 109° East 455 524 41,000  Level Cleveland Center
09:16AM 41.2372 -81.7236 110° East 450 518 41,000  Level Cleveland Center
09:17AM 41.1969 -81.5628 108° East 450 518 41,000  Level Cleveland Center
09:18AM 41.1461 -81.3911 111° Southeast 450 518 41,000  Level Cleveland Center
09:19AM 41.1033 -81.2333 110° East 456 525 41,000  Level Cleveland Center
09:20AM 41.0606 -81.0761 110° East 448 516 41,000  Level Cleveland Center
09:21AM 41.0275 -80.9353 107° East 448 516 41,000  Level Cleveland Center
09:22AM 40.9842 -80.7783 110° East 448 516 41,000  Level Cleveland Center
09:23AM 40.9406 -80.6217 110° East 448 516 41,000  Level Cleveland Center
09:24AM 40.8967 -80.4678 111° Southeast 448 516 41,000  Level Cleveland Center
09:25AM 40.8547 -80.3197 110° East 448 516 41,000  Level Cleveland Center
09:26AM 40.8086 -80.1717 112° Southeast 438 504 41,000  Level Cleveland Center
09:27AM 40.7558 -80.0267 116° Southeast 438 504 41,000  Level Cleveland Center
09:28AM 40.7050 -79.8764 114° Southeast 443 510 41,000  Level Cleveland Center
09:29AM 40.6519 -79.7319 116° Southeast 438 504 41,000  Level Cleveland Center
09:30AM 40.5986 -79.5850 116° Southeast 438 504 41,000 -780 Level Cleveland Center
09:31AM 40.5597 -79.4325 109° East 438 504 39,500 -1,200 Descending Cleveland Center
09:32AM 40.5306 -79.2583 102° East 433 498 38,600 -900 Descending Cleveland Center
09:33AM 40.5014 -79.0950 103° East 440 506 37,700 -900 Descending Cleveland Center
09:34AM 40.4742 -78.9292 102° East 459 528 36,800 -960 Descending Cleveland Center
09:35AM 40.4467 -78.7578 102° East 464 534 35,800 -960 Descending Cleveland Center
09:36AM 40.4189 -78.5922 102° East 470 541 34,900 -1,560 Descending Cleveland Center
09:37AM 40.3886 -78.4214 103° East 470 541 32,700 -2,580 Descending Cleveland Center
09:39AM 40.3453 -78.1572 102° East 474 545 28,000 -2,700 Descending New York Center
09:40AM 40.3158 -77.9933 103° East 463 533 25,400 -1,500 Descending New York Center
09:41AM 40.3089 -77.8292 93° East 452 520 25,000 -240 Descending New York Center
09:42AM 40.2956 -77.6319 95° East 470 541 25,000  Level New York Center
09:43AM 40.2722 -77.4581 100° East 481 554 25,000 -300 Level New York Center
09:44AM 40.2569 -77.3206 98° East 486 559 24,400 -1,500 Descending New York Center
09:45AM 40.2292 -77.1411 101° East 469 540 22,000 -2,820 Descending New York Center
09:46AM 40.2125 -76.9847 98° East 450 518 18,700 -2,220 Descending New York Center
09:47AM 40.1972 -76.8392 98° East 412 474 17,600 -1,140 Descending New York Center
09:48AM 40.1803 -76.6800 98° East 400 460 16,500 -1,020 Descending New York Center
09:49AM 40.1664 -76.5403 97° East 390 449 15,600 -1,020 Descending New York Center
09:50AM 40.1522 -76.4008 98° East 390 449 14,600 -1,020 Descending New York Center
09:51AM 40.1392 -76.2775 98° East 390 449 13,700 -960 Descending New York Center
09:52AM 40.1264 -76.1461 97° East 377 434 12,700 -1,500 Descending New York Center
09:53AM 40.1119 -76.0064 98° East 358 412 10,800 -1,380 Descending New York Center
09:54AM 40.0981 -75.8942 99° East 334 384 10,000 -1,020 Descending New York Center
09:55AM 40.0856 -75.7956 99° East 289 333 8,800 -1,380 Descending New York Center
09:56AM 40.0642 -75.7128 109° East 265 305 7,300 -1,440 Descending New York Center
09:57AM 39.9900 -75.6911 167° South 225 259 6,000 -660 Descending New York Center
09:58AM 39.9344 -75.6764 169° South 232 267 6,000 -420 Level New York Center
09:59AM 39.8744 -75.6667 173° South 216 249 5,200 -780 Descending New York Center
10:00AM 39.8425 -75.6267 136° Southeast 182 209 4,500 -780 Descending New York Center
10:01AM 39.8200 -75.5656 116° Southeast 175 201 3,700 -900 Descending New York Center
10:02AM 39.8178 -75.5169 93° East 154 177 2,800 -900 Descending New York Center
10:03AM 39.8167 -75.4667 92° East 159 183 2,100 -480 Descending Philadelphia TRACON
10:04AM 39.8333 -75.4000 72° East 156 180 2,000 -420 Descending Philadelphia TRACON
10:05AM 39.8500 -75.3500 67° East 121 139 1,300 -660 Descending Philadelphia TRACON
10:06AM 39.8500 -75.3167 90° East 114 131 800 -660 Descending Philadelphia TRACON
10:08AM 39.8722 -75.2409 75° East  Level Estimated
10:15AM 39.8722 -75.2409 247° West  Level Estimated